createdAt,value
2022-12-17T00:00:41.085Z,100929.03
2022-12-17T00:06:24.292Z,100934.72
2022-12-17T00:12:04.456Z,100928.38
2022-12-17T00:17:46.245Z,100930.38
2022-12-17T00:23:32.372Z,100920.00
2022-12-17T00:29:13.351Z,100925.38
2022-12-17T00:34:59.402Z,100936.28
2022-12-17T00:40:41.407Z,100927.72
2022-12-17T00:46:23.128Z,100924.19
2022-12-17T00:52:06.109Z,100917.28
2022-12-17T00:57:48.335Z,100910.38
2022-12-17T01:03:30.851Z,100908.50
2022-12-17T01:09:11.544Z,100890.38
2022-12-17T01:14:52.621Z,100877.59
2022-12-17T01:20:36.525Z,100866.78
2022-12-17T01:26:17.716Z,100873.84
2022-12-17T01:32:02.201Z,100867.44
2022-12-17T01:37:47.286Z,100868.78
2022-12-17T01:43:31.396Z,100860.03
2022-12-17T01:49:13.592Z,100841.19
2022-12-17T01:54:55.751Z,100847.47
2022-12-17T02:00:37.830Z,100846.03
2022-12-17T02:06:32.523Z,100827.16
2022-12-17T02:12:23.033Z,100817.50
2022-12-17T02:18:08.279Z,100816.75
2022-12-17T02:24:02.225Z,100808.78
2022-12-17T02:29:48.020Z,100821.56
2022-12-17T02:35:33.156Z,100832.72
2022-12-17T02:41:14.931Z,100844.97
2022-12-17T02:46:59.708Z,100846.13
2022-12-17T02:52:41.047Z,100846.28
2022-12-17T02:58:21.999Z,100840.88
2022-12-17T03:04:04.179Z,100829.38
2022-12-17T03:09:44.956Z,100829.13
2022-12-17T03:15:26.334Z,100829.59
2022-12-17T03:21:12.791Z,100819.50
2022-12-17T03:26:57.585Z,100833.91
2022-12-17T03:32:38.692Z,100804.81
2022-12-17T03:38:25.676Z,100814.28
2022-12-17T03:44:06.514Z,100827.03
2022-12-17T03:49:52.747Z,100825.41
2022-12-17T03:55:41.696Z,100806.34
2022-12-17T04:01:22.563Z,100818.06
2022-12-17T04:07:03.274Z,100837.25
2022-12-17T04:12:42.686Z,100819.94
2022-12-17T04:18:24.064Z,100827.84
2022-12-17T04:24:10.975Z,100843.97
2022-12-17T04:29:59.003Z,100833.88
2022-12-17T04:35:45.758Z,100837.00
2022-12-17T04:41:33.003Z,100859.50
2022-12-17T04:47:20.996Z,100854.09
2022-12-17T04:53:07.821Z,100852.53
2022-12-17T04:58:57.177Z,100842.63
2022-12-17T05:04:44.714Z,100854.66
2022-12-17T05:10:31.905Z,100851.94
2022-12-17T05:16:19.122Z,100841.69
2022-12-17T05:22:07.102Z,100829.06
2022-12-17T05:27:53.941Z,100835.75
2022-12-17T05:33:40.728Z,100839.09
2022-12-17T06:12:20.597Z,100841.38
2022-12-17T06:18:16.438Z,100841.22
2022-12-17T06:24:03.131Z,100823.19
2022-12-17T06:29:50.773Z,100819.47
2022-12-17T06:35:37.406Z,100823.69
2022-12-17T06:41:23.469Z,100794.16
2022-12-17T06:47:12.134Z,100788.13
2022-12-17T06:52:58.130Z,100788.81
2022-12-17T06:58:59.119Z,100770.53
2022-12-17T07:04:46.914Z,100772.41
2022-12-17T07:10:45.781Z,100766.22
2022-12-17T07:16:45.191Z,100790.34
2022-12-17T07:22:32.717Z,100790.97
2022-12-17T07:28:19.858Z,100721.16
2022-12-17T07:34:43.558Z,100785.13
2022-12-17T07:40:30.525Z,100856.81
2022-12-17T07:46:19.681Z,100858.94
2022-12-17T07:52:06.984Z,100841.41
2022-12-17T07:57:54.045Z,100863.56
2022-12-17T08:03:43.157Z,100866.28
2022-12-17T08:09:30.883Z,100868.25
2022-12-17T08:15:17.743Z,100835.72
2022-12-17T08:21:06.007Z,100854.94
2022-12-17T08:26:54.065Z,100837.66
2022-12-17T08:32:41.432Z,100825.56
2022-12-17T08:38:27.867Z,100828.88
2022-12-17T08:44:16.833Z,100793.63
2022-12-17T08:50:04.027Z,100805.09
2022-12-17T08:55:50.993Z,100806.59
2022-12-17T09:01:39.404Z,100787.78
2022-12-17T09:07:25.707Z,100773.16
2022-12-17T09:13:11.723Z,100759.41
2022-12-17T09:18:59.483Z,100789.03
2022-12-17T09:24:45.900Z,100787.56
2022-12-17T11:48:05.569Z,100659.19
2022-12-17T11:54:05.713Z,100666.16
2022-12-17T11:59:57.011Z,100646.31
2022-12-17T12:05:57.231Z,100646.31
2022-12-17T12:11:49.905Z,64992.06
2022-12-17T12:17:56.875Z,64992.06
2022-12-17T12:23:56.300Z,64992.06
2022-12-17T12:29:46.799Z,64992.06
2022-12-17T12:35:34.233Z,64992.06
2022-12-17T12:41:23.865Z,64992.06
2022-12-17T12:47:11.973Z,64992.06
2022-12-17T12:52:55.550Z,64992.06
2022-12-17T12:58:46.326Z,64992.06
2022-12-17T13:04:46.443Z,64992.06
2022-12-17T13:11:29.234Z,64992.06
2022-12-17T13:17:59.381Z,64992.06
2022-12-17T13:23:34.608Z,64992.06
2022-12-17T13:30:13.014Z,64992.06
2022-12-17T13:36:47.205Z,64992.06
2022-12-17T13:43:18.538Z,64992.06
2022-12-17T13:50:24.574Z,64992.06
2022-12-17T13:56:41.596Z,64992.06
2022-12-17T14:03:37.378Z,64992.06
2022-12-17T14:10:16.254Z,64992.06
2022-12-17T14:16:51.004Z,64992.06
2022-12-17T14:23:24.855Z,64992.06
2022-12-17T14:29:52.841Z,64992.06
2022-12-17T14:36:25.356Z,64992.06
2022-12-17T14:42:59.777Z,64992.06
2022-12-17T14:49:27.105Z,64992.06
2022-12-17T14:55:56.172Z,64992.06
2022-12-17T15:02:26.419Z,64992.06
2022-12-17T15:08:55.272Z,64992.06
2022-12-17T15:15:23.790Z,64992.06
2022-12-17T15:21:51.319Z,64992.06
2022-12-17T15:28:19.258Z,64992.06
2022-12-17T15:34:47.951Z,64992.06
2022-12-17T15:41:32.541Z,64992.06
2022-12-17T15:48:00.463Z,64992.06
2022-12-17T15:54:30.023Z,64992.06
2022-12-17T16:00:57.264Z,64992.06
2022-12-17T16:07:24.935Z,64992.06
2022-12-17T16:13:55.071Z,64992.06
2022-12-17T16:20:22.145Z,64992.06
2022-12-17T16:26:59.402Z,64992.06
2022-12-17T16:33:35.802Z,64992.06
2022-12-17T16:40:04.139Z,64992.06
2022-12-17T16:46:32.757Z,64992.06
2022-12-17T16:53:02.544Z,64992.06
2022-12-17T20:06:05.330Z,100483.19
2022-12-17T20:11:35.535Z,100446.47
2022-12-17T20:17:06.150Z,100466.44
2022-12-17T20:22:36.902Z,100511.50
2022-12-17T20:28:06.242Z,100500.97
2022-12-17T20:33:35.109Z,100523.53
2022-12-17T20:39:05.926Z,100495.56
2022-12-17T20:44:35.255Z,100466.72
2022-12-17T20:50:04.428Z,100518.09
2022-12-17T20:55:34.433Z,100530.19
2022-12-17T21:01:04.807Z,100512.59
2022-12-17T21:06:38.443Z,100512.59
2022-12-17T21:12:09.659Z,100496.31
2022-12-17T21:17:38.464Z,100507.53
2022-12-17T21:23:07.325Z,100509.34
2022-12-17T21:28:39.982Z,100516.97
2022-12-17T21:34:12.650Z,100547.22
2022-12-17T21:39:41.126Z,100534.25
2022-12-17T21:45:11.970Z,100540.28
2022-12-17T21:50:42.246Z,100536.75
2022-12-17T21:56:13.122Z,100552.38
2022-12-17T22:01:44.142Z,100560.91
2022-12-17T22:07:17.282Z,100560.06
2022-12-17T22:13:07.894Z,100551.06
2022-12-17T22:18:46.160Z,100563.75
2022-12-17T22:24:16.235Z,100570.25
2022-12-17T22:30:03.014Z,100578.72
2022-12-17T22:36:51.840Z,100581.59
2022-12-17T22:44:46.623Z,100600.78
2022-12-17T22:47:33.367Z,100610.63
2022-12-17T22:53:04.091Z,64992.06
2022-12-17T22:58:33.339Z,100628.81
2022-12-17T23:04:03.887Z,64992.06
2022-12-17T23:09:34.898Z,64992.06
2022-12-17T23:15:04.375Z,64992.06
2022-12-17T23:20:35.388Z,64992.06
2022-12-17T23:26:12.016Z,64992.06
2022-12-17T23:31:41.332Z,64992.06
2022-12-17T23:37:10.369Z,64992.06
2022-12-17T23:42:40.596Z,64992.06
2022-12-17T23:48:09.188Z,64992.06
2022-12-17T23:53:39.309Z,64992.06
2022-12-17T23:59:10.990Z,64992.06
